Time;durP1;ratioP1;P1;durP2;ratioP2;P2;SDS_P1;SDS_P2;PMS_P1;PMS_P2;Temp;Humidity;BMP_temperature;BMP_pressure;BME280_temperature;BME280_humidity;BME280_pressure;Samples;Min_cycle;Max_cycle;Signal;HPM_P1;HPM_P2
2021/08/13 00:00:38;;;;;;;14.60;12.43;;;19.50;87.20;;;;;;5095942;28;20127;-78
2021/08/13 00:03:05;;;;;;;17.10;11.77;;;19.40;87.40;;;;;;5112922;28;20043;-77
2021/08/13 00:05:30;;;;;;;17.80;11.80;;;19.40;87.50;;;;;;5096703;28;20024;-76
2021/08/13 00:07:56;;;;;;;16.80;12.05;;;19.40;87.60;;;;;;5110569;28;20122;-81
2021/08/13 00:10:22;;;;;;;15.63;11.32;;;19.40;87.60;;;;;;5112291;28;20027;-77
2021/08/13 00:12:47;;;;;;;15.20;12.02;;;19.50;87.60;;;;;;5112338;28;20035;-77
2021/08/13 00:15:13;;;;;;;15.13;12.05;;;19.50;87.40;;;;;;5094096;28;20039;-77
2021/08/13 00:17:39;;;;;;;14.65;11.30;;;19.40;87.50;;;;;;5111537;28;20028;-78
2021/08/13 00:20:05;;;;;;;17.30;11.32;;;19.30;87.70;;;;;;5108800;28;20032;-78
2021/08/13 00:22:31;;;;;;;20.23;12.20;;;19.20;87.90;;;;;;5100093;28;20107;-78
2021/08/13 00:24:56;;;;;;;15.57;11.73;;;19.20;87.90;;;;;;5087031;28;20114;-77
2021/08/13 00:27:22;;;;;;;16.13;12.32;;;19.20;88.00;;;;;;5091703;28;20446;-77
2021/08/13 00:29:48;;;;;;;17.70;12.15;;;19.20;88.10;;;;;;5081683;28;20390;-78
2021/08/13 00:32:14;;;;;;;19.85;12.68;;;19.20;88.20;;;;;;5095108;28;20035;-77
2021/08/13 00:34:40;;;;;;;17.38;12.93;;;19.20;88.40;;;;;;5112652;27;20028;-77
2021/08/13 00:37:05;;;;;;;16.70;12.20;;;19.10;88.60;;;;;;5112910;28;20032;-77
2021/08/13 00:39:31;;;;;;;16.30;12.50;;;19.20;88.60;;;;;;5112135;28;20035;-77
2021/08/13 00:41:57;;;;;;;17.42;11.77;;;19.10;88.60;;;;;;5113907;28;20058;-77
2021/08/13 00:44:23;;;;;;;17.73;12.70;;;19.10;88.60;;;;;;5116623;28;20032;-76
2021/08/13 00:46:49;;;;;;;18.42;12.15;;;19.10;88.70;;;;;;5093955;28;20047;-76
2021/08/13 00:49:14;;;;;;;16.80;12.93;;;19.10;88.80;;;;;;5104332;28;20019;-78
2021/08/13 00:51:41;;;;;;;16.48;12.60;;;19.10;88.90;;;;;;5110456;28;20084;-77
2021/08/13 00:54:06;;;;;;;17.63;12.50;;;19.00;89.00;;;;;;5111638;28;20030;-76
2021/08/13 00:56:32;;;;;;;16.52;12.45;;;19.00;89.20;;;;;;5093076;28;20472;-77
2021/08/13 00:58:58;;;;;;;16.58;11.90;;;19.00;89.20;;;;;;5111182;28;20035;-77
2021/08/13 01:01:24;;;;;;;16.75;12.77;;;19.00;89.30;;;;;;5093057;28;20127;-77
2021/08/13 01:03:49;;;;;;;19.42;14.15;;;18.90;89.30;;;;;;5096685;28;20039;-77
2021/08/13 01:06:17;;;;;;;17.73;14.50;;;18.90;89.40;;;;;;5109745;28;20409;-77
2021/08/13 01:08:44;;;;;;;19.48;14.00;;;18.80;89.50;;;;;;5093613;28;20455;-76
2021/08/13 01:11:34;;;;;;;17.73;12.65;;;18.80;89.70;;;;;;5110284;28;20053;-77
2021/08/13 01:14:23;;;;;;;19.20;13.50;;;18.80;89.90;;;;;;5106520;28;20127;-77
2021/08/13 01:16:53;;;;;;;14.48;12.20;;;18.70;89.90;;;;;;5090707;28;20024;-78
2021/08/13 01:19:53;;;;;;;15.25;13.00;;;18.80;90.00;;;;;;5106419;28;20028;-77
2021/08/13 01:22:41;;;;;;;16.90;13.05;;;18.80;90.00;;;;;;5099931;28;20155;-78
2021/08/13 01:25:08;;;;;;;16.27;12.60;;;18.80;89.90;;;;;;5098662;28;20035;-79
2021/08/13 01:27:38;;;;;;;14.75;11.93;;;18.90;89.70;;;;;;5108838;28;20110;-79
2021/08/13 01:30:11;;;;;;;14.50;11.90;;;19.00;89.60;;;;;;5093056;28;20027;-76
2021/08/13 01:32:47;;;;;;;17.88;13.07;;;19.10;89.40;;;;;;5111228;28;20476;-77
2021/08/13 01:35:38;;;;;;;16.15;12.75;;;19.10;89.30;;;;;;5111304;28;20028;-78
2021/08/13 01:38:14;;;;;;;15.38;11.80;;;19.20;89.20;;;;;;5110966;28;20055;-77
2021/08/13 01:40:46;;;;;;;14.20;11.70;;;19.30;89.00;;;;;;5112166;28;20055;-77
2021/08/13 01:43:17;;;;;;;18.23;11.95;;;19.30;88.80;;;;;;5106956;28;20532;-81
2021/08/13 01:45:44;;;;;;;15.40;12.60;;;19.40;88.60;;;;;;5092459;28;20024;-77
2021/08/13 01:48:11;;;;;;;16.95;12.07;;;19.50;88.40;;;;;;5111400;28;20038;-80
2021/08/13 01:50:38;;;;;;;16.02;12.18;;;19.60;88.40;;;;;;5104435;28;20471;-78
2021/08/13 01:53:05;;;;;;;15.80;12.23;;;19.60;88.00;;;;;;5110079;28;20065;-77
2021/08/13 01:55:32;;;;;;;18.80;11.95;;;19.60;87.90;;;;;;5110807;28;20085;-77
2021/08/13 01:57:59;;;;;;;17.88;14.13;;;19.70;87.70;;;;;;5110260;28;20097;-77
2021/08/13 02:00:25;;;;;;;19.58;13.98;;;19.70;87.60;;;;;;5110870;28;20491;-78
2021/08/13 02:02:54;;;;;;;19.48;15.05;;;19.70;87.50;;;;;;5109640;28;20035;-76
2021/08/13 02:05:22;;;;;;;17.25;14.13;;;19.60;87.50;;;;;;5109198;28;20032;-78
2021/08/13 02:07:48;;;;;;;19.45;15.18;;;19.60;87.60;;;;;;5108362;28;20111;-76
2021/08/13 02:10:15;;;;;;;18.48;15.40;;;19.60;87.60;;;;;;5094730;28;20028;-81
2021/08/13 02:12:41;;;;;;;21.02;16.48;;;19.50;87.50;;;;;;5110408;28;20027;-77
2021/08/13 02:15:09;;;;;;;19.25;16.48;;;19.50;87.60;;;;;;5110928;28;20190;-78
2021/08/13 02:17:43;;;;;;;24.02;16.08;;;19.50;87.50;;;;;;5110134;28;20028;-77
2021/08/13 02:20:13;;;;;;;20.45;16.90;;;19.40;87.60;;;;;;5110209;28;20477;-78
2021/08/13 02:22:39;;;;;;;20.40;17.40;;;19.40;87.60;;;;;;5108885;28;20035;-77
2021/08/13 02:25:05;;;;;;;22.88;18.30;;;19.30;87.50;;;;;;5091854;28;20055;-76
2021/08/13 02:27:33;;;;;;;23.13;17.33;;;19.20;87.60;;;;;;5093809;28;20111;-77
2021/08/13 02:29:59;;;;;;;21.80;18.42;;;19.10;87.80;;;;;;5087899;28;20152;-77
2021/08/13 02:32:27;;;;;;;23.98;18.35;;;19.10;87.90;;;;;;5096574;28;20130;-77
2021/08/13 02:34:52;;;;;;;21.08;18.00;;;19.10;88.00;;;;;;5114153;28;20039;-78
2021/08/13 02:37:34;;;;;;;22.73;18.60;;;19.00;88.20;;;;;;5114628;27;20036;-79
2021/08/13 02:40:14;;;;;;;22.38;18.67;;;18.90;88.40;;;;;;5113105;28;20028;-77
2021/08/13 02:42:54;;;;;;;22.80;18.52;;;18.80;88.60;;;;;;5094222;28;20224;-76
2021/08/13 02:45:22;;;;;;;24.20;20.30;;;18.70;88.70;;;;;;5102995;28;20023;-79
2021/08/13 02:47:54;;;;;;;26.35;20.52;;;18.70;88.90;;;;;;5113682;28;20019;-76
2021/08/13 02:50:23;;;;;;;27.15;18.75;;;18.60;89.30;;;;;;5114048;28;20019;-80
2021/08/13 02:52:57;;;;;;;24.85;19.27;;;18.50;89.60;;;;;;5113160;28;20088;-77
2021/08/13 02:55:53;;;;;;;23.27;18.95;;;18.50;89.80;;;;;;5099702;28;20024;-80
2021/08/13 02:58:23;;;;;;;24.77;19.08;;;18.50;89.90;;;;;;5093691;28;20032;-76
2021/08/13 03:00:51;;;;;;;24.17;17.90;;;18.50;90.00;;;;;;5107473;28;20397;-76
2021/08/13 03:03:18;;;;;;;21.50;18.13;;;18.50;89.90;;;;;;5114215;28;20019;-77
2021/08/13 03:05:48;;;;;;;21.75;17.98;;;18.50;89.90;;;;;;5110000;28;20027;-77
2021/08/13 03:08:18;;;;;;;21.65;17.75;;;18.50;89.90;;;;;;5112501;28;20077;-76
2021/08/13 03:10:44;;;;;;;22.63;18.95;;;18.50;90.00;;;;;;5112711;28;20534;-77
2021/08/13 03:13:10;;;;;;;22.70;18.58;;;18.50;90.00;;;;;;5078417;28;20031;-78
2021/08/13 03:15:36;;;;;;;25.95;19.38;;;18.50;90.00;;;;;;5111916;28;20036;-77
2021/08/13 03:18:03;;;;;;;25.30;18.77;;;18.60;90.00;;;;;;5112575;28;20029;-77
2021/08/13 03:20:29;;;;;;;23.20;18.92;;;18.50;90.00;;;;;;5111182;28;20024;-77
2021/08/13 03:22:55;;;;;;;23.05;18.23;;;18.60;90.00;;;;;;5106992;28;20047;-76
2021/08/13 03:25:22;;;;;;;21.65;18.48;;;18.50;89.80;;;;;;5108496;28;20028;-80
2021/08/13 03:27:49;;;;;;;23.88;18.13;;;18.50;90.00;;;;;;5111344;28;20039;-76
2021/08/13 03:30:14;;;;;;;22.25;18.08;;;18.50;90.00;;;;;;5109098;28;20032;-77
2021/08/13 03:32:41;;;;;;;22.73;18.48;;;18.50;90.10;;;;;;5110929;28;20157;-77
2021/08/13 03:35:08;;;;;;;21.00;17.83;;;18.40;90.00;;;;;;5105647;28;20033;-76
2021/08/13 03:37:35;;;;;;;24.63;18.55;;;18.40;90.10;;;;;;5102409;28;20070;-75
2021/08/13 03:40:02;;;;;;;24.70;19.63;;;18.40;90.10;;;;;;5095934;28;20039;-77
2021/08/13 03:42:28;;;;;;;25.48;19.40;;;18.40;90.00;;;;;;5113065;28;20039;-77
2021/08/13 03:44:54;;;;;;;22.42;19.08;;;18.30;90.10;;;;;;5092470;28;20416;-78
2021/08/13 03:47:20;;;;;;;21.25;17.75;;;18.30;90.10;;;;;;5107495;28;20084;-76
2021/08/13 03:49:45;;;;;;;23.38;18.30;;;18.30;90.20;;;;;;5107429;28;20034;-77
2021/08/13 03:52:11;;;;;;;23.60;18.75;;;18.30;90.20;;;;;;5058623;28;20040;-77
2021/08/13 03:54:37;;;;;;;23.45;18.05;;;18.30;90.10;;;;;;5097546;28;20032;-76
2021/08/13 03:57:03;;;;;;;23.20;17.63;;;18.30;90.10;;;;;;5093053;28;20361;-82
2021/08/13 03:59:28;;;;;;;23.70;19.65;;;18.30;90.20;;;;;;5091994;28;20028;-80
2021/08/13 04:01:54;;;;;;;24.00;19.27;;;18.30;90.20;;;;;;5094343;28;20063;-77
2021/08/13 04:04:20;;;;;;;24.90;19.65;;;18.30;90.20;;;;;;5112561;28;20035;-77
2021/08/13 04:06:45;;;;;;;23.40;18.83;;;18.20;90.20;;;;;;5111721;28;20115;-78
2021/08/13 04:09:11;;;;;;;24.85;19.85;;;18.20;90.30;;;;;;5111729;28;20486;-77
2021/08/13 04:11:36;;;;;;;26.00;19.38;;;18.20;90.30;;;;;;5112628;28;20503;-77
2021/08/13 04:14:04;;;;;;;23.65;20.80;;;18.20;90.30;;;;;;5113101;28;20035;-77
2021/08/13 04:16:30;;;;;;;24.05;19.30;;;18.20;90.30;;;;;;5107869;28;20028;-80
2021/08/13 04:18:56;;;;;;;24.45;19.67;;;18.10;90.40;;;;;;5112911;28;20050;-77
2021/08/13 04:21:22;;;;;;;22.38;18.98;;;18.20;90.40;;;;;;5077839;28;20036;-76
2021/08/13 04:23:48;;;;;;;25.45;19.35;;;18.20;90.40;;;;;;5085340;28;20059;-77
2021/08/13 04:26:13;;;;;;;23.58;20.10;;;18.20;90.60;;;;;;5091848;28;20028;-77
2021/08/13 04:28:39;;;;;;;22.73;19.40;;;18.20;90.30;;;;;;5074386;28;20028;-77
2021/08/13 04:31:05;;;;;;;27.50;19.80;;;18.20;90.30;;;;;;5091938;28;20047;-76
2021/08/13 04:33:33;;;;;;;21.77;18.70;;;18.20;90.30;;;;;;5092728;28;20125;-80
2021/08/13 04:35:58;;;;;;;24.58;19.85;;;18.20;90.30;;;;;;5086563;28;20615;-77
2021/08/13 04:38:25;;;;;;;26.98;20.42;;;18.20;90.30;;;;;;5113175;28;20098;-77
2021/08/13 04:40:51;;;;;;;26.10;19.98;;;18.30;90.20;;;;;;5111066;28;20030;-76
2021/08/13 04:43:17;;;;;;;27.27;20.80;;;18.50;90.00;;;;;;5111998;28;20446;-77
2021/08/13 04:45:42;;;;;;;24.55;20.98;;;18.60;89.70;;;;;;5090719;28;20024;-77
2021/08/13 04:48:08;;;;;;;31.88;22.70;;;18.70;89.40;;;;;;5092312;28;20407;-77
2021/08/13 04:50:33;;;;;;;28.17;21.75;;;18.80;89.50;;;;;;5107108;28;20081;-80
2021/08/13 04:52:59;;;;;;;27.98;22.33;;;18.90;88.80;;;;;;5105229;28;20476;-77
2021/08/13 04:55:25;;;;;;;26.92;22.38;;;19.10;88.40;;;;;;5076407;28;20028;-77
2021/08/13 04:57:52;;;;;;;29.30;23.20;;;19.20;87.80;;;;;;5090413;28;20027;-77
2021/08/13 05:00:19;;;;;;;34.92;24.20;;;19.30;87.50;;;;;;5106328;28;20039;-77
2021/08/13 05:02:45;;;;;;;32.65;23.67;;;19.80;86.80;;;;;;5090262;28;20351;-77
2021/08/13 05:05:11;;;;;;;34.90;23.92;;;20.30;85.30;;;;;;5092310;28;20028;-78
2021/08/13 05:07:37;;;;;;;30.05;22.88;;;20.50;83.70;;;;;;5090476;28;20495;-81
2021/08/13 05:10:11;;;;;;;29.52;22.25;;;20.50;83.40;;;;;;5089954;28;20112;-78
2021/08/13 05:12:37;;;;;;;26.85;22.92;;;20.40;83.50;;;;;;5057760;28;20032;-80
2021/08/13 05:15:04;;;;;;;28.45;21.70;;;20.30;83.60;;;;;;5096992;28;20026;-77
2021/08/13 05:17:31;;;;;;;30.45;22.55;;;20.20;83.80;;;;;;5111365;28;20159;-78
2021/08/13 05:19:56;;;;;;;28.73;23.75;;;20.10;84.00;;;;;;5109924;28;20038;-78
2021/08/13 05:22:22;;;;;;;29.52;23.23;;;20.10;84.10;;;;;;5108430;28;20035;-78
2021/08/13 05:24:48;;;;;;;30.80;23.58;;;20.40;83.80;;;;;;5089310;28;20105;-78
2021/08/13 05:27:14;;;;;;;28.63;23.88;;;20.70;83.00;;;;;;5090736;28;20077;-77
2021/08/13 05:29:40;;;;;;;28.20;23.92;;;20.90;82.40;;;;;;5093174;28;20032;-79
2021/08/13 05:32:06;;;;;;;34.63;24.58;;;21.20;81.70;;;;;;5094084;28;20108;-79
2021/08/13 05:34:32;;;;;;;31.08;24.67;;;21.10;81.30;;;;;;5101360;28;20086;-77
2021/08/13 05:36:58;;;;;;;28.83;23.55;;;21.10;81.50;;;;;;5091610;28;20070;-76
2021/08/13 05:39:23;;;;;;;29.85;24.80;;;21.10;81.60;;;;;;5074357;28;20028;-77
2021/08/13 05:41:49;;;;;;;32.30;26.77;;;21.10;81.80;;;;;;5109783;28;20220;-77
2021/08/13 05:44:14;;;;;;;35.75;27.50;;;21.30;81.90;;;;;;5072201;28;20039;-80
2021/08/13 05:46:40;;;;;;;33.10;25.65;;;21.50;81.50;;;;;;5112435;28;20034;-79
2021/08/13 05:49:06;;;;;;;34.88;27.48;;;22.10;80.30;;;;;;5091082;28;20477;-78
2021/08/13 05:51:31;;;;;;;30.17;24.52;;;22.70;78.60;;;;;;5103524;28;20429;-76
2021/08/13 05:53:57;;;;;;;31.30;23.90;;;22.80;77.80;;;;;;5090721;28;20122;-77
2021/08/13 05:56:23;;;;;;;28.55;24.45;;;22.60;77.70;;;;;;5109666;28;20034;-78
2021/08/13 05:58:49;;;;;;;28.95;24.17;;;22.40;78.00;;;;;;5091009;28;20027;-77
2021/08/13 06:01:14;;;;;;;28.35;22.48;;;22.30;78.30;;;;;;5094607;28;20060;-78
2021/08/13 06:03:40;;;;;;;29.95;23.48;;;22.10;78.40;;;;;;5094658;28;20139;-77
2021/08/13 06:06:06;;;;;;;27.15;22.38;;;22.00;78.60;;;;;;5094402;28;20093;-76
2021/08/13 06:08:31;;;;;;;26.60;21.30;;;21.90;78.80;;;;;;5116541;28;20102;-76
2021/08/13 06:10:57;;;;;;;24.65;20.17;;;22.10;79.00;;;;;;5112163;28;20046;-75
2021/08/13 06:13:23;;;;;;;24.08;20.25;;;22.10;78.40;;;;;;5079989;28;20085;-77
2021/08/13 06:15:48;;;;;;;22.48;18.42;;;22.20;77.80;;;;;;5112323;28;20031;-79
2021/08/13 06:18:14;;;;;;;21.77;17.15;;;22.20;77.10;;;;;;5109884;28;20028;-78
2021/08/13 06:20:40;;;;;;;25.58;18.05;;;22.20;76.80;;;;;;5088298;28;20047;-78
2021/08/13 06:23:06;;;;;;;18.65;16.33;;;22.10;77.00;;;;;;5110833;28;20032;-77
2021/08/13 06:25:32;;;;;;;22.98;17.73;;;22.10;77.00;;;;;;5104898;28;20054;-77
2021/08/13 06:27:57;;;;;;;21.33;17.73;;;22.00;77.00;;;;;;5107533;28;20024;-78
2021/08/13 06:30:23;;;;;;;18.45;15.48;;;21.90;77.10;;;;;;5109756;28;20031;-79
2021/08/13 06:32:51;;;;;;;19.27;15.85;;;21.80;77.20;;;;;;5108721;28;20032;-79
2021/08/13 06:35:17;;;;;;;20.13;15.18;;;21.70;77.10;;;;;;5100714;28;20028;-78
2021/08/13 06:37:48;;;;;;;19.92;15.32;;;21.70;77.30;;;;;;5103374;28;20024;-78
2021/08/13 06:40:13;;;;;;;20.45;17.13;;;21.70;77.30;;;;;;5104886;28;20467;-78
2021/08/13 06:42:40;;;;;;;22.27;18.48;;;21.70;77.20;;;;;;5101952;28;20077;-77
2021/08/13 06:45:08;;;;;;;25.00;19.30;;;21.90;77.20;;;;;;5084510;28;20032;-77
2021/08/13 06:47:34;;;;;;;23.10;18.92;;;22.20;76.70;;;;;;5107787;28;20055;-77
2021/08/13 06:49:59;;;;;;;24.83;19.77;;;22.50;75.80;;;;;;5088422;28;20067;-77
2021/08/13 06:52:25;;;;;;;22.17;18.90;;;22.80;74.80;;;;;;5107162;28;20035;-78
2021/08/13 06:54:51;;;;;;;22.75;17.83;;;23.10;74.00;;;;;;5104503;28;20116;-78
2021/08/13 06:57:16;;;;;;;20.77;18.02;;;23.20;73.10;;;;;;5086394;28;20020;-80
2021/08/13 06:59:42;;;;;;;20.48;17.90;;;23.40;72.60;;;;;;5105492;28;20061;-79
2021/08/13 07:02:08;;;;;;;18.52;15.73;;;23.90;72.30;;;;;;5095634;27;20526;-78
2021/08/13 07:04:33;;;;;;;17.60;15.30;;;24.60;70.60;;;;;;5100899;28;20490;-78
2021/08/13 07:06:59;;;;;;;16.15;14.27;;;24.90;69.00;;;;;;5079644;28;20040;-79
2021/08/13 07:09:24;;;;;;;17.17;14.70;;;25.10;67.50;;;;;;5113360;28;20024;-78
2021/08/13 07:11:50;;;;;;;17.98;14.55;;;25.30;67.00;;;;;;5112562;28;20035;-77
2021/08/13 07:14:16;;;;;;;19.60;14.88;;;25.60;66.20;;;;;;5094739;28;20134;-78
2021/08/13 07:16:41;;;;;;;16.67;14.32;;;25.90;65.30;;;;;;5095505;28;20084;-78
2021/08/13 07:19:07;;;;;;;17.02;14.55;;;26.10;65.00;;;;;;5112126;28;20027;-77
2021/08/13 07:21:33;;;;;;;17.08;15.07;;;26.40;64.50;;;;;;5111975;28;20035;-78
2021/08/13 07:23:58;;;;;;;17.55;14.60;;;27.00;63.70;;;;;;5094685;28;20028;-81
2021/08/13 07:26:24;;;;;;;15.73;13.60;;;27.30;62.60;;;;;;5112635;28;20042;-78
2021/08/13 07:28:50;;;;;;;19.05;14.75;;;27.50;61.20;;;;;;5110993;28;20026;-79
2021/08/13 07:31:15;;;;;;;16.65;12.95;;;27.30;60.90;;;;;;5112931;28;20028;-78
2021/08/13 07:33:41;;;;;;;15.45;13.05;;;26.90;61.50;;;;;;5110069;28;20043;-79
2021/08/13 07:36:07;;;;;;;15.23;13.38;;;26.60;62.10;;;;;;5110992;28;20089;-79
2021/08/13 07:38:39;;;;;;;14.43;12.93;;;26.30;62.60;;;;;;5095368;28;20119;-78
2021/08/13 07:41:06;;;;;;;14.02;12.38;;;26.10;63.00;;;;;;5090253;28;20024;-78
2021/08/13 07:43:31;;;;;;;14.75;13.15;;;25.90;63.00;;;;;;5098910;28;20047;-79
2021/08/13 07:45:57;;;;;;;14.38;12.63;;;25.90;63.10;;;;;;5108002;28;20035;-79
2021/08/13 07:48:23;;;;;;;13.88;11.75;;;25.90;63.20;;;;;;5096925;28;20117;-79
2021/08/13 07:50:48;;;;;;;13.20;11.55;;;26.00;63.20;;;;;;5112452;28;20585;-79
2021/08/13 07:53:14;;;;;;;11.23;10.13;;;26.00;62.60;;;;;;5109108;28;20068;-79
2021/08/13 07:55:40;;;;;;;17.77;10.75;;;26.30;62.10;;;;;;5112398;28;20027;-79
2021/08/13 07:58:05;;;;;;;12.27;10.98;;;26.60;61.20;;;;;;5110322;28;20039;-78
2021/08/13 08:00:31;;;;;;;12.57;10.57;;;26.50;61.10;;;;;;5090267;28;20587;-77
2021/08/13 08:02:56;;;;;;;11.18;9.32;;;26.50;61.40;;;;;;5082851;28;20020;-78
2021/08/13 08:05:23;;;;;;;9.50;8.45;;;26.60;60.80;;;;;;5102477;28;20028;-78
2021/08/13 08:07:48;;;;;;;9.18;7.50;;;26.90;60.40;;;;;;5111324;28;20479;-79
2021/08/13 08:10:15;;;;;;;8.18;7.32;;;27.40;59.80;;;;;;5107424;28;20035;-79
2021/08/13 08:12:40;;;;;;;8.25;7.40;;;28.20;58.30;;;;;;5111007;28;20514;-78
2021/08/13 08:15:07;;;;;;;8.05;7.15;;;28.80;56.90;;;;;;5110773;28;20102;-79
2021/08/13 08:17:33;;;;;;;7.28;6.57;;;29.40;55.90;;;;;;5093211;28;20031;-78
2021/08/13 08:19:58;;;;;;;7.13;6.43;;;29.90;54.20;;;;;;5110545;28;20039;-78
2021/08/13 08:22:25;;;;;;;7.30;6.00;;;30.30;53.10;;;;;;5089091;28;20043;-81
2021/08/13 08:24:50;;;;;;;9.05;6.13;;;30.20;52.80;;;;;;5106793;28;20023;-80
2021/08/13 08:27:16;;;;;;;8.63;6.65;;;30.20;52.30;;;;;;5110745;28;20054;-81
2021/08/13 08:29:42;;;;;;;8.48;6.13;;;29.90;52.60;;;;;;5108784;28;20119;-78
2021/08/13 08:32:07;;;;;;;8.32;5.90;;;29.70;52.80;;;;;;5110478;28;20035;-83
2021/08/13 08:34:33;;;;;;;8.88;5.97;;;29.50;52.80;;;;;;5090109;28;20533;-83
2021/08/13 08:36:58;;;;;;;5.93;5.00;;;29.20;53.10;;;;;;5108837;28;20391;-80
2021/08/13 08:39:26;;;;;;;5.70;5.20;;;28.90;53.60;;;;;;5107970;28;20529;-77
2021/08/13 08:41:52;;;;;;;6.55;4.57;;;28.70;54.40;;;;;;5106830;28;20113;-79
2021/08/13 08:44:18;;;;;;;7.20;5.20;;;28.90;54.60;;;;;;5105850;28;20479;-80
2021/08/13 08:46:45;;;;;;;5.03;4.28;;;29.10;54.50;;;;;;5100558;28;20027;-81
2021/08/13 08:49:11;;;;;;;5.03;4.53;;;29.20;54.00;;;;;;5102409;28;20475;-82
2021/08/13 08:51:40;;;;;;;5.30;4.07;;;29.40;53.90;;;;;;5100307;28;20144;-79
2021/08/13 08:54:07;;;;;;;4.63;4.05;;;29.80;52.60;;;;;;5111341;27;20162;-79
2021/08/13 08:56:33;;;;;;;4.03;3.45;;;30.20;52.00;;;;;;5090860;28;20037;-79
2021/08/13 08:58:59;;;;;;;5.00;3.30;;;30.50;50.90;;;;;;5104353;28;20035;-77
2021/08/13 09:01:25;;;;;;;3.72;3.30;;;30.50;50.60;;;;;;5103943;28;20047;-83
2021/08/13 09:03:51;;;;;;;4.70;2.97;;;30.70;50.40;;;;;;5100427;28;20111;-78
2021/08/13 09:06:17;;;;;;;3.42;2.90;;;31.00;49.70;;;;;;5091948;28;20023;-77
2021/08/13 09:08:44;;;;;;;3.35;2.75;;;31.30;49.20;;;;;;5110716;28;20120;-79
2021/08/13 09:11:11;;;;;;;4.25;2.83;;;31.50;49.00;;;;;;5093635;28;20040;-80
2021/08/13 09:13:38;;;;;;;3.08;2.78;;;31.70;48.30;;;;;;5108480;28;20023;-80
2021/08/13 09:16:16;;;;;;;2.85;2.17;;;32.10;47.90;;;;;;5110484;28;20047;-79
2021/08/13 09:18:45;;;;;;;4.50;2.55;;;32.50;47.20;;;;;;5110721;28;20019;-79
2021/08/13 09:21:20;;;;;;;3.47;2.55;;;32.40;46.90;;;;;;5109173;28;20031;-79
2021/08/13 09:23:47;;;;;;;3.47;2.72;;;32.30;46.90;;;;;;5109754;28;20069;-79
2021/08/13 09:26:18;;;;;;;3.65;3.35;;;31.80;47.90;;;;;;5108154;28;20119;-81
2021/08/13 09:28:59;;;;;;;4.60;3.70;;;31.50;48.40;;;;;;5109584;28;20080;-79
2021/08/13 09:31:30;;;;;;;3.00;2.70;;;31.50;49.00;;;;;;5109941;28;20406;-78
2021/08/13 09:34:06;;;;;;;3.13;2.83;;;31.50;48.50;;;;;;5108469;28;20020;-78
2021/08/13 09:36:35;;;;;;;4.43;2.42;;;31.60;48.40;;;;;;5101244;28;20019;-79
2021/08/13 09:39:07;;;;;;;4.07;2.67;;;31.80;48.30;;;;;;5109079;28;20030;-79
2021/08/13 09:41:47;;;;;;;3.22;2.60;;;32.10;48.00;;;;;;5107719;28;20031;-79
2021/08/13 09:44:32;;;;;;;2.92;2.30;;;32.30;47.50;;;;;;5105180;28;20027;-80
2021/08/13 09:47:06;;;;;;;2.70;2.38;;;32.60;47.10;;;;;;5109929;28;20039;-77
2021/08/13 09:49:55;;;;;;;2.70;2.05;;;33.00;46.30;;;;;;5106282;28;20478;-78
2021/08/13 09:52:21;;;;;;;3.03;2.47;;;33.20;45.60;;;;;;5092197;28;20126;-79
2021/08/13 09:54:49;;;;;;;3.33;2.88;;;33.00;45.50;;;;;;5103397;28;20119;-79
2021/08/13 09:57:16;;;;;;;2.35;2.08;;;33.00;45.90;;;;;;5105882;28;20077;-79
2021/08/13 09:59:59;;;;;;;3.67;2.50;;;33.30;45.80;;;;;;5106889;28;20032;-79
2021/08/13 10:02:25;;;;;;;3.00;2.20;;;33.40;45.20;;;;;;5088775;28;20186;-79
2021/08/13 10:04:51;;;;;;;4.53;2.22;;;33.60;44.90;;;;;;5079729;28;20772;-79
2021/08/13 10:07:20;;;;;;;5.15;1.50;;;33.60;44.70;;;;;;5073006;28;20334;-79
2021/08/13 10:09:48;;;;;;;3.13;1.50;;;33.50;44.70;;;;;;5110597;28;20552;-79
2021/08/13 10:12:14;;;;;;;1.83;1.50;;;33.70;43.90;;;;;;5110538;28;20471;-81
2021/08/13 10:14:42;;;;;;;2.00;1.55;;;33.60;44.00;;;;;;5104613;28;20058;-79
2021/08/13 10:17:16;;;;;;;2.47;1.42;;;33.30;44.30;;;;;;5109825;28;20020;-79
2021/08/13 10:19:45;;;;;;;2.90;1.10;;;32.90;45.00;;;;;;5108542;28;20024;-79
2021/08/13 10:22:12;;;;;;;1.70;0.95;;;32.80;45.60;;;;;;5104356;28;20061;-77
2021/08/13 10:24:39;;;;;;;2.15;1.02;;;33.20;44.80;;;;;;5082352;28;20027;-78
2021/08/13 10:27:06;;;;;;;1.58;0.63;;;33.50;44.30;;;;;;5094147;28;20027;-77
2021/08/13 10:29:33;;;;;;;2.15;0.80;;;33.50;43.60;;;;;;5090311;28;20036;-79
2021/08/13 10:31:59;;;;;;;1.55;0.70;;;33.50;43.40;;;;;;5109203;28;20042;-79
2021/08/13 10:34:26;;;;;;;2.88;1.08;;;33.20;44.10;;;;;;5086292;28;20038;-81
2021/08/13 10:36:52;;;;;;;1.52;0.85;;;33.00;44.20;;;;;;5101190;28;20022;-78
2021/08/13 10:39:20;;;;;;;1.90;1.00;;;32.80;44.70;;;;;;5095883;28;20023;-78
2021/08/13 10:41:51;;;;;;;2.58;1.10;;;32.60;44.90;;;;;;5099311;28;20027;-79
2021/08/13 10:44:21;;;;;;;1.60;0.65;;;32.70;45.00;;;;;;5105469;28;20785;-78
2021/08/13 10:46:47;;;;;;;2.20;1.10;;;33.00;44.90;;;;;;5108516;28;20012;-79
2021/08/13 10:49:17;;;;;;;1.60;1.00;;;33.30;44.10;;;;;;5091947;28;20036;-78
2021/08/13 10:51:43;;;;;;;1.52;0.95;;;33.10;44.00;;;;;;5092736;28;20024;-78
2021/08/13 10:54:14;;;;;;;1.42;0.73;;;32.90;44.60;;;;;;5105367;28;20096;-79
2021/08/13 10:56:44;;;;;;;2.28;0.70;;;32.90;44.40;;;;;;5088794;28;20035;-78
2021/08/13 10:59:11;;;;;;;1.08;0.80;;;33.00;44.40;;;;;;5080256;28;20122;-78
2021/08/13 11:01:56;;;;;;;2.80;0.90;;;33.10;44.40;;;;;;5099479;28;20066;-80
2021/08/13 11:04:41;;;;;;;1.75;0.80;;;33.10;44.20;;;;;;5095515;28;20036;-79
2021/08/13 11:07:07;;;;;;;1.35;0.80;;;32.90;43.80;;;;;;5093335;28;20086;-78
2021/08/13 11:09:35;;;;;;;1.30;0.80;;;32.70;43.80;;;;;;5078175;28;20024;-80
2021/08/13 11:12:03;;;;;;;1.38;0.80;;;32.50;44.10;;;;;;5090300;28;20032;-78
2021/08/13 11:14:48;;;;;;;3.80;0.77;;;32.40;44.10;;;;;;5092801;28;20127;-83
2021/08/13 11:17:37;;;;;;;1.50;0.90;;;32.30;42.20;;;;;;5112438;28;20455;-78
2021/08/13 11:20:05;;;;;;;2.63;1.05;;;32.10;42.80;;;;;;5106902;28;20062;-78
2021/08/13 11:22:35;;;;;;;1.90;0.90;;;32.10;43.20;;;;;;5122913;27;20031;-82
2021/08/13 11:25:02;;;;;;;1.58;0.90;;;31.80;43.10;;;;;;5085613;28;20090;-78
2021/08/13 11:27:27;;;;;;;2.25;0.80;;;31.50;44.10;;;;;;5091865;28;20418;-78
2021/08/13 11:29:53;;;;;;;1.88;1.00;;;31.30;44.30;;;;;;5085274;28;20016;-78
2021/08/13 11:32:19;;;;;;;1.92;1.10;;;31.30;44.00;;;;;;5111366;28;20491;-82
2021/08/13 11:34:45;;;;;;;3.00;1.30;;;31.40;44.10;;;;;;5107623;28;20420;-79
2021/08/13 11:37:44;;;;;;;2.83;1.38;;;31.50;44.60;;;;;;5112590;28;20473;-79
2021/08/13 11:40:13;;;;;;;2.35;1.15;;;31.50;44.80;;;;;;5113508;28;20016;-78
2021/08/13 11:42:51;;;;;;;1.88;1.20;;;31.50;44.60;;;;;;5112389;28;20050;-79
2021/08/13 11:45:17;;;;;;;2.53;1.48;;;31.50;43.90;;;;;;5113102;28;20104;-79
2021/08/13 11:47:51;;;;;;;2.20;1.20;;;31.50;44.00;;;;;;5106431;28;20028;-81
2021/08/13 11:50:18;;;;;;;3.58;1.50;;;31.50;44.40;;;;;;5091889;28;20523;-80
2021/08/13 11:52:51;;;;;;;3.53;1.30;;;31.60;44.10;;;;;;5089022;28;20020;-77
2021/08/13 11:55:23;;;;;;;2.42;1.10;;;31.60;44.10;;;;;;5105288;28;20055;-79
2021/08/13 11:57:53;;;;;;;2.97;1.20;;;31.40;43.30;;;;;;5117762;28;20023;-81
2021/08/13 12:00:22;;;;;;;2.28;1.17;;;31.20;43.80;;;;;;5115325;28;20442;-81
2021/08/13 12:02:48;;;;;;;1.98;1.27;;;31.00;44.40;;;;;;5127719;27;20040;-79
2021/08/13 12:05:14;;;;;;;2.33;1.30;;;30.90;43.60;;;;;;5120772;28;20038;-79
2021/08/13 12:07:40;;;;;;;3.15;1.50;;;30.90;43.50;;;;;;5123411;28;20043;-83
2021/08/13 12:10:13;;;;;;;2.75;1.58;;;30.80;43.50;;;;;;5124629;28;20455;-81
2021/08/13 12:12:38;;;;;;;;;;;30.70;42.70;;;;;;5100321;28;20050;-81
2021/08/13 12:15:05;;;;;;;2.95;2.00;;;30.70;41.60;;;;;;5108768;28;21640;-77
2021/08/13 12:17:31;;;;;;;3.38;2.67;;;30.50;41.40;;;;;;5093852;28;20077;-77
2021/08/13 12:19:59;;;;;;;3.13;2.40;;;30.30;40.80;;;;;;5099016;28;20131;-78
2021/08/13 12:22:31;;;;;;;3.75;2.38;;;30.30;40.60;;;;;;5112882;28;20116;-78
2021/08/13 12:24:56;;;;;;;4.68;2.70;;;30.40;40.30;;;;;;5106423;28;20047;-79
2021/08/13 12:27:26;;;;;;;2.92;2.58;;;30.40;40.00;;;;;;5102970;28;20028;-78
2021/08/13 12:29:52;;;;;;;4.45;2.80;;;30.40;40.50;;;;;;5106424;28;20031;-78
2021/08/13 12:32:18;;;;;;;4.82;2.70;;;30.40;40.50;;;;;;5103949;28;20047;-78
2021/08/13 12:34:44;;;;;;;3.72;2.50;;;30.40;40.60;;;;;;5071723;28;20704;-84
2021/08/13 12:37:11;;;;;;;5.28;2.63;;;30.30;40.20;;;;;;5105614;28;20038;-80